Time;durP1;ratioP1;P1;durP2;ratioP2;P2;SDS_P1;SDS_P2;PMS_P1;PMS_P2;Temp;Humidity;BMP_temperature;BMP_pressure;BME280_temperature;BME280_humidity;BME280_pressure;Samples;Min_cycle;Max_cycle;Signal;HPM_P1;HPM_P2
2024/03/11 16:20:50;;;;;;;;;;;1.20;66.40;;;;;;5137032;27;19938;-93
2024/03/11 16:23:16;;;;;;;;;;;1.10;67.60;;;;;;5100882;28;19913;-92
2024/03/11 16:25:42;;;;;;;;;;;1.20;68.20;;;;;;5086821;28;19942;-93
2024/03/11 16:28:09;;;;;;;;;;;1.20;68.40;;;;;;5088832;28;19920;-93
2024/03/11 16:30:35;;;;;;;;;;;1.30;68.70;;;;;;5086876;28;19920;-93
2024/03/11 16:33:02;;;;;;;;;;;1.40;68.70;;;;;;5091015;28;20285;-94
2024/03/11 16:35:34;;;;;;;;;;;1.40;68.60;;;;;;5085208;28;19913;-94
2024/03/11 16:38:00;;;;;;;;;;;1.50;68.60;;;;;;5085484;28;19912;-92
2024/03/11 16:40:26;;;;;;;;;;;1.60;68.30;;;;;;5089759;28;19973;-92
2024/03/11 16:42:58;;;;;;;;;;;1.70;68.30;;;;;;5088775;28;19916;-93
2024/03/11 16:45:24;;;;;;;;;;;1.70;68.30;;;;;;5091709;28;19927;-92
2024/03/11 16:47:51;;;;;;;;;;;1.80;68.40;;;;;;5095061;28;19913;-91
2024/03/11 16:50:20;;;;;;;;;;;1.80;68.20;;;;;;5094387;28;20420;-93
2024/03/11 16:52:48;;;;;;;;;;;1.80;68.20;;;;;;5123006;27;19912;-90
2024/03/11 16:55:14;;;;;;;;;;;1.80;68.40;;;;;;5114848;28;19913;-91
2024/03/11 16:57:42;;;;;;;;;;;1.80;68.70;;;;;;5097695;28;19957;-93
2024/03/11 17:00:14;;;;;;;;;;;1.80;69.00;;;;;;5091384;28;19924;-93
2024/03/11 17:02:52;;;;;;;;;;;1.90;69.20;;;;;;5118720;28;20373;-95
2024/03/11 17:05:21;;;;;;;;;;;1.90;69.40;;;;;;5089220;28;19928;-94
2024/03/11 17:07:51;;;;;;;;;;;1.80;68.40;;;;;;5089877;28;19944;-91
2024/03/11 17:10:18;;;;;;;;;;;1.90;68.10;;;;;;5089510;28;20606;-91
2024/03/11 17:12:45;;;;;;;;;;;1.90;67.80;;;;;;5088958;28;19912;-91
2024/03/11 17:15:13;;;;;;;;;;;1.90;67.40;;;;;;5091485;28;19920;-94
2024/03/11 17:17:45;;;;;;;;;;;1.90;66.80;;;;;;5092447;28;20045;-94
2024/03/11 17:20:13;;;;;;;;;;;1.90;66.20;;;;;;5088932;28;19926;-95
2024/03/11 17:22:43;;;;;;;;;;;1.90;66.10;;;;;;5090797;28;20006;-93
2024/03/11 17:25:09;;;;;;;;;;;1.90;65.30;;;;;;5090060;28;19957;-94
2024/03/11 17:27:34;;;;;;;;;;;1.90;65.20;;;;;;5090167;28;19916;-96
2024/03/11 17:30:02;;;;;;;;;;;1.90;64.40;;;;;;5089441;28;19912;-93
2024/03/11 17:32:28;;;;;;;;;;;1.90;64.30;;;;;;5075505;28;19920;-91
2024/03/11 17:34:54;;;;;;;;;;;1.90;64.00;;;;;;5092553;28;20360;-94
2024/03/11 17:37:46;;;;;;;;;;;1.90;63.90;;;;;;5080229;28;19958;-95
2024/03/11 17:40:18;;;;;;;;;;;1.90;64.10;;;;;;4978488;28;19958;-94
2024/03/11 17:42:47;;;;;;;;;;;1.90;64.20;;;;;;5086465;28;19995;-95
2024/03/11 17:45:16;;;;;;;;;;;1.90;64.50;;;;;;5075594;28;19935;-94
2024/03/11 17:47:43;;;;;;;;;;;1.90;64.90;;;;;;5080921;28;19913;-94
2024/03/11 17:50:10;;;;;;;;;;;1.90;65.30;;;;;;5079007;28;19969;-95
2024/03/11 17:52:45;;;;;;;;;;;1.90;65.60;;;;;;5073824;28;19919;-95
2024/03/11 17:55:18;;;;;;;;;;;1.90;65.90;;;;;;5074441;28;19916;-93
2024/03/11 17:57:45;;;;;;;;;;;1.90;66.20;;;;;;5078872;28;20012;-95
2024/03/11 18:00:11;;;;;;;;;;;1.90;66.40;;;;;;5074922;28;19920;-92
2024/03/11 18:02:41;;;;;;;;;;;1.80;66.80;;;;;;5081309;28;19916;-95
2024/03/11 18:05:07;;;;;;;;;;;1.80;66.90;;;;;;5073733;28;20437;-95
2024/03/11 18:07:33;;;;;;;;;;;1.80;67.20;;;;;;5080235;28;19913;-93
2024/03/11 18:09:59;;;;;;;;;;;1.80;67.40;;;;;;5072032;28;19917;-93
2024/03/11 18:12:28;;;;;;;;;;;1.80;67.70;;;;;;5074854;28;19958;-93
2024/03/11 18:14:53;;;;;;;;;;;1.80;67.90;;;;;;5076034;28;20320;-96
2024/03/11 18:17:20;;;;;;;;;;;1.80;68.00;;;;;;5076378;28;19913;-94
2024/03/11 18:19:46;;;;;;;;;;;1.80;67.90;;;;;;5076865;28;20067;-92
2024/03/11 18:22:11;;;;;;;;;;;1.80;68.00;;;;;;5075690;28;19955;-94
2024/03/11 18:24:37;;;;;;;;;;;1.80;68.00;;;;;;5073958;28;19974;-93
2024/03/11 18:27:02;;;;;;;;;;;1.80;67.40;;;;;;5074941;28;19916;-93
2024/03/11 18:29:32;;;;;;;;;;;1.80;67.40;;;;;;5073639;28;19916;-94
2024/03/11 18:31:58;;;;;;;;;;;1.80;67.50;;;;;;5075395;28;19952;-94
2024/03/11 18:34:23;;;;;;;;;;;1.80;67.20;;;;;;5075637;28;19913;-92
2024/03/11 18:36:50;;;;;;;;;;;1.70;67.30;;;;;;5075219;28;20380;-95
2024/03/11 18:39:16;;;;;;;;;;;1.70;67.20;;;;;;5076166;28;19912;-93
2024/03/11 18:41:41;;;;;;;;;;;1.70;67.40;;;;;;5078444;28;20276;-94
2024/03/11 18:44:07;;;;;;;;;;;1.70;67.40;;;;;;5075410;28;19913;-95
2024/03/11 18:46:33;;;;;;;;;;;1.70;67.60;;;;;;5073458;28;19919;-95
2024/03/11 18:48:58;;;;;;;;;;;1.70;67.70;;;;;;5081800;28;19923;-92
2024/03/11 18:51:24;;;;;;;;;;;1.70;67.80;;;;;;5074932;28;19912;-93
2024/03/11 18:53:50;;;;;;;;;;;1.70;67.80;;;;;;5076559;28;19913;-93
2024/03/11 18:56:15;;;;;;;;;;;1.70;67.90;;;;;;5075388;28;19912;-94
2024/03/11 18:58:46;;;;;;;;;;;1.60;67.70;;;;;;5084246;28;20381;-95
2024/03/11 19:01:12;;;;;;;;;;;1.60;67.80;;;;;;5074475;28;19912;-94
2024/03/11 19:03:40;;;;;;;;;;;1.60;67.70;;;;;;5076265;28;19918;-95
2024/03/11 19:06:09;;;;;;;;;;;1.60;67.70;;;;;;5066947;28;19913;-95
2024/03/11 19:08:36;;;;;;;;;;;1.60;67.40;;;;;;5088726;28;20361;-93
2024/03/11 19:11:02;;;;;;;;;;;1.60;67.00;;;;;;5089604;28;19908;-93
2024/03/11 19:13:29;;;;;;;;;;;1.60;67.00;;;;;;5079106;28;19913;-95
2024/03/11 19:16:00;;;;;;;;;;;1.60;67.10;;;;;;5071863;28;19912;-92
2024/03/11 19:18:25;;;;;;;;;;;1.60;67.20;;;;;;5074121;28;19919;-92
2024/03/11 19:20:51;;;;;;;;;;;1.50;66.90;;;;;;5075515;28;19999;-93
2024/03/11 19:23:17;;;;;;;;;;;1.50;66.90;;;;;;5073079;28;19956;-93
2024/03/11 19:25:44;;;;;;;;;;;1.50;66.80;;;;;;5073879;28;19919;-94
2024/03/11 19:40:39;;;;;;;;;;;1.10;65.00;;;;;;5125932;27;19916;-92
2024/03/11 19:50:53;;;;;;;;;;;0.90;65.00;;;;;;5148799;27;19912;-96
2024/03/11 19:53:41;;;;;;;;;;;0.80;65.80;;;;;;5062595;28;19920;-96
2024/03/11 19:56:27;;;;;;;;;;;0.80;66.40;;;;;;5059949;28;19920;-94
2024/03/11 19:59:08;;;;;;;;;;;0.80;66.40;;;;;;5087567;28;19934;-93
2024/03/11 20:01:34;;;;;;;;;;;0.80;66.50;;;;;;5111105;28;19912;-92
